Terminal Aerodrome Forecast
Issued by NWS

Home | Current Version | Previous Version | Text Only | Print | Product List | Glossary On
Versions: 1 2 3 4 5 6 7 8 9 10 11 12 13
000
FTUS42 TJSJ 291750
TAFISX
TAF
TISX 291750Z 2918/3018 12009KT P6SM VCSH SCT020 SCT050
     FM292100 13006KT P6SM VCSH SCT020 OVC100
     FM300000 09004KT P6SM VCSH SCT020 OVC100
     FM301500 11009KT P6SM VCTS SCT020CB BKN250=

USA.gov is the U.S. government's official web portal to all federal, state and local government web resources and services.